Time;durP1;ratioP1;P1;durP2;ratioP2;P2;SDS_P1;SDS_P2;PMS_P1;PMS_P2;Temp;Humidity;BMP_temperature;BMP_pressure;BME280_temperature;BME280_humidity;BME280_pressure;Samples;Min_cycle;Max_cycle;Signal;HPM_P1;HPM_P2
2023/10/28 00:02:23;;;;;;;3.60;0.80;;;11.50;21.80;;;;;;5008614;28;20480;-69
2023/10/28 00:04:51;;;;;;;3.67;0.80;;;11.50;21.20;;;;;;5010800;28;21031;-69
2023/10/28 00:07:17;;;;;;;4.30;0.80;;;11.50;21.30;;;;;;5011480;28;20510;-69
2023/10/28 00:09:44;;;;;;;3.13;0.77;;;11.50;21.10;;;;;;5007591;28;20991;-69
2023/10/28 00:12:14;;;;;;;2.90;0.70;;;11.40;20.90;;;;;;5011649;28;20488;-69
2023/10/28 00:14:40;;;;;;;3.47;0.73;;;11.40;20.90;;;;;;5005734;28;20491;-69
2023/10/28 00:17:07;;;;;;;3.60;0.70;;;11.40;21.00;;;;;;5008997;28;20921;-69
2023/10/28 00:19:34;;;;;;;3.43;0.70;;;11.40;20.90;;;;;;5008654;28;20471;-68
2023/10/28 00:22:00;;;;;;;3.27;0.70;;;11.30;20.80;;;;;;5003147;28;20465;-69
2023/10/28 00:24:27;;;;;;;3.80;0.60;;;11.30;21.00;;;;;;5012027;28;20475;-69
2023/10/28 00:26:54;;;;;;;3.30;0.77;;;11.30;21.00;;;;;;5012194;28;20801;-68
2023/10/28 00:29:22;;;;;;;5.87;0.63;;;11.30;21.00;;;;;;5010435;28;20459;-69
2023/10/28 00:31:50;;;;;;;4.90;0.90;;;11.40;21.30;;;;;;5010774;28;21018;-69
2023/10/28 00:34:17;;;;;;;4.50;0.87;;;11.30;21.10;;;;;;5010010;28;20998;-69
2023/10/28 00:36:44;;;;;;;3.67;0.80;;;11.30;21.00;;;;;;5010995;28;20463;-68
2023/10/28 00:39:11;;;;;;;2.90;0.60;;;11.30;21.20;;;;;;5008340;28;20456;-69
2023/10/28 00:41:38;;;;;;;3.40;0.57;;;11.20;21.40;;;;;;5010181;28;21007;-68
2023/10/28 00:44:05;;;;;;;3.70;0.90;;;11.20;21.50;;;;;;5006394;28;20453;-69
2023/10/28 00:46:34;;;;;;;3.20;0.60;;;11.20;21.70;;;;;;5005510;28;20464;-69
2023/10/28 00:49:00;;;;;;;3.30;0.70;;;11.20;21.90;;;;;;5005683;28;20839;-69
2023/10/28 00:51:28;;;;;;;3.80;0.73;;;11.20;21.90;;;;;;5008092;28;20948;-68
2023/10/28 00:53:56;;;;;;;6.20;1.63;;;11.20;21.90;;;;;;5008895;28;20483;-69
2023/10/28 00:56:23;;;;;;;4.67;0.63;;;11.20;21.80;;;;;;5013185;28;20467;-68
2023/10/28 00:58:51;;;;;;;3.53;0.87;;;11.20;21.80;;;;;;5009752;28;20546;-69
2023/10/28 01:01:18;;;;;;;3.37;0.73;;;11.20;22.00;;;;;;5008403;28;20468;-68
2023/10/28 01:03:46;;;;;;;6.97;1.20;;;11.20;22.00;;;;;;5008619;28;20458;-69
2023/10/28 01:06:14;;;;;;;3.63;0.90;;;11.20;21.90;;;;;;5015784;28;20471;-68
2023/10/28 01:08:41;;;;;;;3.93;0.90;;;11.20;21.70;;;;;;5012110;28;20485;-68
2023/10/28 01:11:07;;;;;;;3.13;0.70;;;11.20;21.80;;;;;;5009219;28;20471;-68
2023/10/28 01:13:34;;;;;;;3.83;0.60;;;11.20;21.70;;;;;;5009080;28;20491;-68
2023/10/28 01:16:01;;;;;;;3.10;0.77;;;11.20;21.20;;;;;;5012230;28;20853;-68
2023/10/28 01:18:28;;;;;;;3.30;0.80;;;11.20;21.40;;;;;;5010147;28;20464;-69
2023/10/28 01:20:56;;;;;;;4.77;0.97;;;11.20;21.60;;;;;;5011222;28;20467;-69
2023/10/28 01:23:24;;;;;;;4.03;0.80;;;11.10;21.50;;;;;;5004439;28;20464;-69
2023/10/28 01:25:51;;;;;;;3.20;0.80;;;11.10;21.40;;;;;;5010781;28;20483;-69
2023/10/28 01:28:18;;;;;;;3.23;0.60;;;11.10;21.30;;;;;;5009087;28;20956;-69
2023/10/28 01:30:45;;;;;;;3.97;0.80;;;11.00;21.30;;;;;;5007295;28;20472;-69
2023/10/28 01:33:11;;;;;;;3.90;0.70;;;11.10;21.20;;;;;;5011039;28;20479;-69
2023/10/28 01:35:39;;;;;;;3.23;0.60;;;11.10;21.30;;;;;;5013531;28;20487;-69
2023/10/28 01:38:06;;;;;;;3.10;0.80;;;11.00;21.20;;;;;;5011367;28;20459;-69
2023/10/28 01:40:34;;;;;;;3.70;0.87;;;11.00;21.00;;;;;;5009725;28;20468;-69
2023/10/28 01:43:01;;;;;;;4.60;1.27;;;11.00;21.10;;;;;;5014537;28;20460;-69
2023/10/28 01:45:28;;;;;;;4.90;1.00;;;11.00;21.10;;;;;;5013748;28;20515;-69
2023/10/28 01:47:55;;;;;;;5.17;0.80;;;10.90;21.30;;;;;;5014788;28;20468;-69
2023/10/28 01:50:21;;;;;;;6.10;1.00;;;10.90;21.30;;;;;;5013450;28;20459;-70
2023/10/28 01:52:48;;;;;;;4.93;0.90;;;10.90;21.20;;;;;;5010313;28;20481;-69
2023/10/28 01:55:15;;;;;;;4.00;1.00;;;10.90;21.30;;;;;;5011795;28;20483;-69
2023/10/28 01:57:43;;;;;;;5.20;0.90;;;10.90;21.10;;;;;;5013985;28;20482;-68
2023/10/28 02:00:13;;;;;;;4.83;1.10;;;10.90;20.90;;;;;;5012718;28;20466;-69
2023/10/28 02:02:41;;;;;;;3.90;0.80;;;10.90;20.70;;;;;;5009325;28;20586;-69
2023/10/28 02:05:09;;;;;;;3.60;0.83;;;10.90;20.70;;;;;;5009854;28;20467;-69
2023/10/28 02:07:36;;;;;;;4.80;0.83;;;10.90;20.90;;;;;;5008540;28;20456;-69
2023/10/28 02:10:02;;;;;;;5.43;1.47;;;10.90;20.70;;;;;;5012250;28;20458;-68
2023/10/28 02:12:34;;;;;;;4.33;0.97;;;10.90;21.00;;;;;;5011107;28;20464;-68
2023/10/28 02:15:02;;;;;;;4.30;0.97;;;10.90;20.90;;;;;;5014427;28;20514;-68
2023/10/28 02:17:29;;;;;;;3.70;0.80;;;10.90;20.70;;;;;;5008514;28;20532;-69
2023/10/28 02:19:56;;;;;;;6.20;0.83;;;10.90;20.60;;;;;;5010585;28;20470;-69
2023/10/28 02:22:23;;;;;;;5.03;1.00;;;10.90;20.60;;;;;;5014216;28;20466;-69
2023/10/28 02:24:49;;;;;;;5.67;0.80;;;11.10;20.70;;;;;;5012776;28;20490;-68
2023/10/28 02:27:17;;;;;;;4.13;0.70;;;11.00;20.40;;;;;;5012397;28;20460;-69
2023/10/28 02:29:44;;;;;;;3.93;0.80;;;11.00;20.30;;;;;;5011772;28;20467;-69
2023/10/28 02:32:13;;;;;;;3.60;0.90;;;11.00;20.30;;;;;;5011887;28;20480;-69
2023/10/28 02:34:41;;;;;;;5.67;0.80;;;11.00;20.40;;;;;;5013593;28;21181;-68
2023/10/28 02:37:08;;;;;;;3.60;0.70;;;11.00;20.30;;;;;;5009955;28;21087;-69
2023/10/28 02:39:34;;;;;;;4.60;0.63;;;11.00;20.40;;;;;;5012814;28;20464;-69
2023/10/28 02:42:01;;;;;;;8.20;1.07;;;11.00;20.50;;;;;;5010619;28;20459;-69
2023/10/28 02:44:30;;;;;;;3.97;0.83;;;11.00;20.50;;;;;;5010480;28;20476;-69
2023/10/28 02:46:58;;;;;;;3.80;0.80;;;11.00;20.90;;;;;;5007161;28;21072;-69
2023/10/28 02:49:27;;;;;;;3.93;0.83;;;11.00;21.10;;;;;;5014142;28;20460;-68
2023/10/28 02:51:54;;;;;;;3.60;0.70;;;11.00;21.10;;;;;;5012245;28;20483;-69
2023/10/28 02:54:21;;;;;;;4.67;1.00;;;11.00;21.20;;;;;;5012404;28;20487;-69
2023/10/28 02:56:47;;;;;;;8.20;1.03;;;11.00;21.20;;;;;;5011577;28;21014;-68
2023/10/28 02:59:14;;;;;;;4.40;0.73;;;11.00;21.50;;;;;;5013725;28;20467;-69
2023/10/28 03:01:41;;;;;;;3.33;0.80;;;11.00;21.60;;;;;;5012638;28;20475;-69
2023/10/28 03:04:08;;;;;;;4.73;0.90;;;10.90;21.60;;;;;;5011598;28;20476;-69
2023/10/28 03:06:36;;;;;;;3.43;0.60;;;11.00;21.40;;;;;;5007907;28;20538;-68
2023/10/28 03:09:03;;;;;;;3.90;0.80;;;11.00;21.20;;;;;;5008857;28;20494;-69
2023/10/28 03:11:29;;;;;;;3.60;0.70;;;11.00;21.30;;;;;;5014347;28;20456;-68
2023/10/28 03:13:56;;;;;;;3.30;0.67;;;11.00;21.20;;;;;;5008055;28;20487;-69
2023/10/28 03:16:23;;;;;;;3.40;0.80;;;10.90;21.70;;;;;;5013657;28;20459;-69
2023/10/28 03:18:49;;;;;;;3.67;0.90;;;10.90;21.80;;;;;;5012542;28;20821;-68
2023/10/28 03:21:16;;;;;;;3.20;0.60;;;10.90;21.70;;;;;;5006337;28;20461;-68
2023/10/28 03:23:44;;;;;;;3.60;0.63;;;10.90;21.60;;;;;;5008265;28;20479;-68
2023/10/28 03:26:12;;;;;;;3.80;1.10;;;10.90;21.80;;;;;;5009958;28;20471;-68
2023/10/28 03:28:39;;;;;;;3.93;0.77;;;10.90;21.70;;;;;;5011721;28;20964;-69
2023/10/28 03:31:09;;;;;;;4.33;1.00;;;10.90;21.80;;;;;;5010415;28;20492;-69
2023/10/28 03:33:36;;;;;;;4.00;0.97;;;10.90;21.90;;;;;;5010575;28;20482;-68
2023/10/28 03:36:04;;;;;;;3.30;0.80;;;11.10;22.00;;;;;;5009719;28;20479;-69
2023/10/28 03:38:30;;;;;;;3.70;0.87;;;10.90;22.00;;;;;;5013659;28;20460;-69
2023/10/28 03:40:58;;;;;;;3.47;0.80;;;10.90;21.80;;;;;;5013313;28;20494;-69
2023/10/28 03:43:25;;;;;;;3.07;0.73;;;10.90;21.90;;;;;;5012315;28;20966;-68
2023/10/28 03:45:52;;;;;;;3.77;1.00;;;10.90;21.90;;;;;;5011830;28;20484;-69
2023/10/28 03:48:19;;;;;;;4.30;0.70;;;10.90;22.00;;;;;;5008219;28;20463;-68
2023/10/28 03:50:45;;;;;;;3.20;0.77;;;10.90;21.90;;;;;;5007435;28;20956;-69
2023/10/28 03:53:12;;;;;;;5.07;0.70;;;10.90;22.10;;;;;;5009004;28;20464;-69
2023/10/28 03:55:39;;;;;;;6.00;1.70;;;10.90;22.10;;;;;;5009465;28;20487;-68
2023/10/28 03:58:07;;;;;;;3.77;1.07;;;10.80;22.10;;;;;;5014107;28;20463;-69
2023/10/28 04:00:33;;;;;;;3.93;1.27;;;10.90;22.20;;;;;;5013217;28;20457;-69
2023/10/28 04:03:00;;;;;;;4.27;1.07;;;10.90;22.20;;;;;;5009386;28;20466;-69
2023/10/28 04:05:27;;;;;;;4.60;1.33;;;10.90;22.10;;;;;;5009635;28;21017;-68
2023/10/28 04:07:54;;;;;;;3.93;1.07;;;10.90;21.80;;;;;;5011902;28;20464;-69
2023/10/28 04:10:21;;;;;;;4.30;0.90;;;11.00;21.70;;;;;;5003436;28;21501;-69
2023/10/28 04:12:48;;;;;;;3.70;0.60;;;11.00;21.60;;;;;;5005589;28;20940;-69
2023/10/28 04:15:18;;;;;;;3.90;0.70;;;11.00;21.50;;;;;;5005861;28;20498;-69
2023/10/28 04:17:45;;;;;;;3.30;0.80;;;10.90;21.70;;;;;;5009768;28;20448;-69
2023/10/28 04:20:12;;;;;;;6.37;1.00;;;10.90;21.70;;;;;;5012926;28;20824;-68
2023/10/28 04:22:38;;;;;;;4.40;1.17;;;10.90;21.90;;;;;;5009114;28;20506;-69
2023/10/28 04:25:08;;;;;;;3.90;1.00;;;10.80;22.00;;;;;;5007496;28;20471;-69
2023/10/28 04:27:35;;;;;;;3.50;1.10;;;10.90;21.80;;;;;;5012457;28;20463;-69
2023/10/28 04:30:03;;;;;;;4.20;0.80;;;10.80;21.90;;;;;;5013552;28;20460;-68
2023/10/28 04:32:32;;;;;;;5.20;0.77;;;10.80;21.90;;;;;;5011027;28;20482;-69
2023/10/28 04:34:58;;;;;;;3.13;0.87;;;10.80;21.90;;;;;;5010952;28;20483;-69
2023/10/28 04:37:25;;;;;;;3.77;1.00;;;10.80;21.70;;;;;;5011792;28;20494;-69
2023/10/28 04:39:52;;;;;;;3.60;0.80;;;10.80;21.40;;;;;;5011490;28;20452;-69
2023/10/28 04:42:19;;;;;;;5.13;0.90;;;10.80;21.40;;;;;;5009870;28;20471;-69
2023/10/28 04:44:46;;;;;;;3.50;0.60;;;10.80;21.40;;;;;;5008591;28;20495;-69
2023/10/28 04:47:13;;;;;;;4.70;0.77;;;10.80;21.20;;;;;;5007898;28;20464;-69
2023/10/28 04:49:42;;;;;;;6.33;1.20;;;10.80;20.90;;;;;;5010105;28;20464;-69
2023/10/28 04:52:09;;;;;;;5.47;0.80;;;10.80;20.80;;;;;;5011610;28;20463;-69
2023/10/28 04:54:35;;;;;;;3.87;0.90;;;10.80;20.60;;;;;;5009298;28;20487;-69
2023/10/28 04:57:03;;;;;;;3.93;0.80;;;10.80;20.60;;;;;;5009937;28;20471;-69
2023/10/28 05:02:08;;;;;;;5.33;0.80;;;10.80;20.80;;;;;;5018722;28;20482;-66
2023/10/28 05:04:35;;;;;;;3.23;0.70;;;10.70;21.00;;;;;;5024715;28;21155;-66
2023/10/28 05:07:04;;;;;;;3.60;0.70;;;10.70;21.20;;;;;;5022382;28;20467;-66
2023/10/28 05:09:30;;;;;;;4.87;0.90;;;10.60;21.50;;;;;;5018835;28;20467;-66
2023/10/28 05:11:57;;;;;;;5.57;1.43;;;10.60;21.80;;;;;;5017990;28;20911;-66
2023/10/28 05:14:24;;;;;;;4.47;0.63;;;10.60;21.90;;;;;;5017586;28;20499;-67
2023/10/28 05:16:52;;;;;;;6.20;1.00;;;10.50;22.00;;;;;;5018796;28;20470;-67
2023/10/28 05:19:21;;;;;;;6.03;0.93;;;10.50;22.00;;;;;;5018560;28;21156;-67
2023/10/28 05:21:47;;;;;;;4.10;1.07;;;10.50;22.10;;;;;;5015824;28;20577;-65
2023/10/28 05:24:16;;;;;;;4.30;1.33;;;10.50;22.30;;;;;;5019073;28;20487;-65
2023/10/28 05:26:43;;;;;;;3.97;0.83;;;10.50;22.30;;;;;;5019302;28;20542;-65
2023/10/28 05:29:10;;;;;;;4.10;0.60;;;10.50;22.70;;;;;;5017968;28;20460;-66
2023/10/28 05:31:37;;;;;;;4.37;0.93;;;10.50;22.70;;;;;;5028139;28;20510;-65
2023/10/28 05:34:04;;;;;;;8.10;1.33;;;10.50;22.80;;;;;;5033641;28;20534;-65
2023/10/28 05:36:31;;;;;;;4.47;1.10;;;10.50;22.80;;;;;;5023474;28;20999;-65
2023/10/28 05:38:59;;;;;;;4.63;0.80;;;10.50;22.90;;;;;;5020225;28;20470;-65
2023/10/28 05:41:27;;;;;;;4.13;0.90;;;10.50;22.80;;;;;;5017513;28;20510;-65
2023/10/28 05:43:54;;;;;;;3.30;0.70;;;10.40;22.80;;;;;;5017563;28;20467;-65
2023/10/28 05:46:22;;;;;;;4.37;0.93;;;10.40;22.90;;;;;;5015540;28;20476;-65
2023/10/28 05:48:50;;;;;;;4.47;0.77;;;10.40;22.90;;;;;;5020694;28;20467;-66
2023/10/28 05:51:17;;;;;;;3.23;0.80;;;10.40;22.90;;;;;;5022210;28;20975;-67
2023/10/28 05:53:43;;;;;;;5.60;0.80;;;10.40;23.20;;;;;;5018731;28;20506;-66
2023/10/28 05:56:10;;;;;;;4.63;0.90;;;10.40;23.30;;;;;;5015398;28;20479;-65
2023/10/28 05:58:38;;;;;;;4.70;0.93;;;10.40;23.20;;;;;;5018405;28;20847;-65
2023/10/28 06:01:05;;;;;;;5.17;1.17;;;10.40;23.10;;;;;;5020517;28;21199;-65
2023/10/28 06:03:32;;;;;;;3.83;0.77;;;10.40;23.10;;;;;;5020408;28;20459;-65
2023/10/28 06:05:59;;;;;;;4.40;0.90;;;10.30;23.40;;;;;;5023310;28;20485;-65
2023/10/28 06:08:26;;;;;;;4.97;0.73;;;10.40;23.30;;;;;;5024399;28;20819;-65
2023/10/28 06:10:53;;;;;;;3.73;0.63;;;10.40;23.40;;;;;;5017307;28;20465;-65
2023/10/28 06:13:20;;;;;;;3.50;1.10;;;10.50;23.20;;;;;;5019582;28;20960;-64
2023/10/28 06:15:48;;;;;;;5.30;1.17;;;10.60;22.90;;;;;;5020707;28;20494;-65
2023/10/28 06:18:15;;;;;;;6.00;1.10;;;10.70;22.80;;;;;;5022881;28;20467;-65
2023/10/28 06:20:42;;;;;;;3.37;0.90;;;10.90;22.80;;;;;;5021986;28;20458;-64
2023/10/28 06:23:09;;;;;;;5.53;0.90;;;11.00;21.80;;;;;;5023154;28;20486;-65
2023/10/28 06:25:35;;;;;;;4.83;0.77;;;11.10;21.80;;;;;;5021598;28;20479;-64
2023/10/28 06:28:02;;;;;;;4.47;0.90;;;11.20;20.80;;;;;;5020092;28;20507;-65
2023/10/28 06:30:29;;;;;;;4.40;0.90;;;11.20;20.30;;;;;;5024384;28;20472;-65
2023/10/28 06:32:58;;;;;;;3.90;1.03;;;11.30;20.00;;;;;;5022109;28;20470;-66
2023/10/28 06:35:25;;;;;;;4.03;0.80;;;11.40;20.00;;;;;;5020907;28;20487;-66
2023/10/28 06:37:52;;;;;;;3.63;1.10;;;11.50;19.80;;;;;;5022131;28;20530;-65
2023/10/28 06:40:19;;;;;;;5.87;0.70;;;11.80;19.50;;;;;;5025205;28;20462;-65
2023/10/28 06:42:45;;;;;;;4.53;1.00;;;12.20;18.30;;;;;;5024232;28;20454;-66
2023/10/28 06:45:12;;;;;;;3.57;0.70;;;12.70;17.00;;;;;;5024935;28;21287;-65
2023/10/28 06:47:39;;;;;;;5.07;0.93;;;13.00;16.00;;;;;;5023461;28;20516;-65
2023/10/28 06:50:08;;;;;;;5.90;0.97;;;13.30;15.30;;;;;;5024817;28;20456;-65
2023/10/28 06:52:36;;;;;;;3.20;0.80;;;13.90;14.20;;;;;;5023993;28;20462;-65
2023/10/28 06:55:03;;;;;;;3.80;0.90;;;14.20;13.20;;;;;;5019778;28;20487;-65
2023/10/28 06:57:30;;;;;;;4.20;0.90;;;14.50;12.60;;;;;;5021614;28;20464;-65
2023/10/28 06:59:58;;;;;;;9.17;1.10;;;14.50;11.90;;;;;;5019307;28;20585;-65
2023/10/28 07:02:24;;;;;;;4.17;1.13;;;14.30;12.00;;;;;;5023022;28;20526;-66
2023/10/28 07:04:51;;;;;;;3.93;0.80;;;14.10;12.40;;;;;;5028926;28;20482;-65
2023/10/28 07:07:19;;;;;;;5.53;1.00;;;14.00;12.20;;;;;;5028797;28;21711;-65
2023/10/28 07:09:46;;;;;;;6.77;0.90;;;13.90;12.50;;;;;;5022401;28;20458;-66
2023/10/28 07:12:13;;;;;;;5.53;1.00;;;13.90;12.90;;;;;;5025290;28;20944;-65
2023/10/28 07:14:40;;;;;;;6.03;0.90;;;13.80;12.90;;;;;;5023494;28;20501;-66
2023/10/28 07:17:06;;;;;;;4.47;1.10;;;14.00;13.20;;;;;;5022497;28;20460;-65
2023/10/28 07:19:32;;;;;;;4.80;1.00;;;14.30;12.90;;;;;;5022194;28;20509;-66
2023/10/28 07:21:59;;;;;;;3.67;0.87;;;14.40;11.80;;;;;;5017065;28;21255;-66
2023/10/28 07:24:27;;;;;;;3.70;1.17;;;14.40;11.40;;;;;;5021012;28;20475;-65
2023/10/28 07:26:54;;;;;;;4.60;1.17;;;14.50;11.40;;;;;;5020492;28;20474;-66
2023/10/28 07:29:21;;;;;;;3.20;0.70;;;14.40;11.50;;;;;;5019672;28;20939;-65
2023/10/28 07:31:47;;;;;;;4.50;1.37;;;14.40;11.90;;;;;;5023597;28;20482;-66
2023/10/28 07:34:14;;;;;;;3.20;0.77;;;14.60;12.20;;;;;;5017801;28;20485;-66
2023/10/28 07:36:41;;;;;;;4.73;0.90;;;15.00;12.10;;;;;;5025516;28;20459;-66
2023/10/28 07:39:09;;;;;;;7.00;0.77;;;15.40;11.00;;;;;;5023288;28;20489;-65
2023/10/28 07:41:38;;;;;;;3.37;0.90;;;15.70;10.80;;;;;;5022524;28;20463;-66
2023/10/28 07:44:05;;;;;;;5.60;1.37;;;16.10;9.70;;;;;;5023977;28;20471;-65
2023/10/28 07:46:33;;;;;;;3.90;0.97;;;16.70;8.90;;;;;;5024817;28;20463;-66
2023/10/28 07:49:00;;;;;;;3.30;0.70;;;17.70;7.10;;;;;;5023321;28;20545;-65
2023/10/28 07:51:27;;;;;;;3.47;0.93;;;18.60;5.00;;;;;;5021283;28;20944;-66
2023/10/28 07:53:53;;;;;;;4.30;0.80;;;19.10;3.80;;;;;;5024789;28;20549;-66
2023/10/28 07:56:20;;;;;;;4.93;1.27;;;19.20;3.00;;;;;;5024171;28;20478;-66
2023/10/28 07:58:52;;;;;;;3.50;0.80;;;19.40;2.00;;;;;;5022859;28;20554;-66
2023/10/28 08:01:19;;;;;;;3.90;1.00;;;19.80;1.60;;;;;;5019403;28;20503;-67
2023/10/28 08:03:46;;;;;;;5.23;0.87;;;20.20;1.00;;;;;;5023283;28;20467;-67
2023/10/28 08:06:14;;;;;;;4.83;1.27;;;20.70;1.00;;;;;;5023123;28;20478;-67
2023/10/28 08:08:41;;;;;;;3.40;0.87;;;21.60;1.00;;;;;;5023750;28;20477;-67
2023/10/28 08:11:09;;;;;;;3.90;1.30;;;22.60;1.00;;;;;;5022608;28;20940;-69
2023/10/28 08:13:35;;;;;;;4.07;1.30;;;23.70;1.00;;;;;;5018413;28;20463;-67
2023/10/28 08:16:04;;;;;;;3.60;1.00;;;24.70;1.00;;;;;;5024969;28;20568;-67
2023/10/28 08:18:32;;;;;;;3.93;0.93;;;25.70;1.00;;;;;;5019631;28;20471;-68
2023/10/28 08:20:59;;;;;;;4.60;0.90;;;26.50;1.00;;;;;;5019246;28;20468;-68
2023/10/28 08:23:28;;;;;;;4.20;0.80;;;27.40;1.00;;;;;;5017630;28;21017;-67
2023/10/28 08:25:55;;;;;;;9.27;1.50;;;28.30;1.00;;;;;;5019812;28;20559;-68
2023/10/28 08:28:22;;;;;;;3.50;0.87;;;29.10;1.00;;;;;;5020721;28;20477;-69
2023/10/28 08:30:49;;;;;;;4.87;1.20;;;30.00;1.00;;;;;;5021379;28;20466;-67
2023/10/28 08:33:17;;;;;;;3.60;1.00;;;30.80;1.00;;;;;;5025235;28;20463;-67
2023/10/28 08:35:44;;;;;;;4.27;1.50;;;31.50;1.00;;;;;;5023091;28;20483;-67
2023/10/28 08:38:10;;;;;;;3.63;0.97;;;32.30;1.00;;;;;;5020094;28;20467;-68
2023/10/28 08:40:37;;;;;;;3.23;0.73;;;32.90;1.00;;;;;;5024027;28;20990;-68
2023/10/28 08:43:05;;;;;;;3.33;0.80;;;33.60;1.00;;;;;;5022477;28;20463;-68
2023/10/28 08:45:33;;;;;;;5.80;1.30;;;34.30;1.00;;;;;;5025041;28;20487;-68
2023/10/28 08:48:00;;;;;;;4.47;0.90;;;34.70;1.00;;;;;;5021309;28;20496;-68
2023/10/28 08:50:28;;;;;;;4.80;0.97;;;35.00;1.00;;;;;;5022762;28;20468;-68
2023/10/28 08:52:57;;;;;;;4.70;0.80;;;34.90;1.00;;;;;;5023304;28;20483;-68
2023/10/28 08:55:24;;;;;;;5.17;1.20;;;34.40;1.00;;;;;;5020988;28;20933;-68
2023/10/28 08:57:52;;;;;;;7.07;1.10;;;34.60;1.00;;;;;;5023233;28;20467;-68
2023/10/28 09:00:22;;;;;;;4.40;1.00;;;34.90;1.00;;;;;;5019974;28;20824;-68
2023/10/28 09:02:50;;;;;;;3.10;0.70;;;35.60;1.00;;;;;;5019511;28;20484;-68
2023/10/28 09:05:18;;;;;;;3.37;0.90;;;36.30;1.00;;;;;;5021406;28;20479;-68
2023/10/28 09:07:46;;;;;;;3.67;0.77;;;36.80;1.00;;;;;;5017336;28;20549;-69
2023/10/28 09:10:14;;;;;;;4.07;0.90;;;37.10;1.00;;;;;;5020989;28;20838;-68
2023/10/28 09:12:41;;;;;;;6.70;1.30;;;37.70;1.00;;;;;;5019888;28;20465;-68
2023/10/28 09:15:09;;;;;;;4.10;1.17;;;38.10;1.00;;;;;;5019275;28;20487;-68
2023/10/28 09:17:35;;;;;;;4.60;0.90;;;38.40;1.00;;;;;;5021225;28;20546;-68
2023/10/28 09:20:05;;;;;;;4.23;1.10;;;38.80;1.00;;;;;;5019277;28;20844;-67
2023/10/28 09:22:33;;;;;;;4.03;0.97;;;39.20;1.00;;;;;;5023049;28;20455;-67
2023/10/28 09:25:01;;;;;;;4.53;0.87;;;39.20;1.00;;;;;;5022853;28;20466;-67
2023/10/28 09:27:28;;;;;;;7.50;1.00;;;39.20;1.00;;;;;;5021175;28;20457;-68
2023/10/28 09:30:05;;;;;;;3.73;0.80;;;39.30;1.00;;;;;;5016995;28;20463;-67
2023/10/28 09:32:33;;;;;;;3.57;1.00;;;38.80;1.00;;;;;;5026623;28;21211;-67
2023/10/28 09:35:05;;;;;;;3.20;0.70;;;37.40;1.00;;;;;;5017506;28;20558;-67
2023/10/28 09:37:33;;;;;;;3.07;0.70;;;36.40;1.00;;;;;;5023203;28;21274;-67
2023/10/28 09:40:04;;;;;;;3.93;0.90;;;36.20;1.00;;;;;;5023950;28;20529;-67
2023/10/28 09:42:32;;;;;;;3.47;0.97;;;36.10;1.00;;;;;;5023876;28;20517;-67
2023/10/28 09:44:59;;;;;;;3.73;1.10;;;35.90;1.00;;;;;;5018906;28;20501;-67
2023/10/28 09:47:34;;;;;;;3.73;0.80;;;35.60;1.00;;;;;;5021865;28;20454;-67
2023/10/28 09:50:06;;;;;;;6.87;0.80;;;34.60;1.00;;;;;;5023625;28;20462;-67
2023/10/28 09:52:36;;;;;;;3.50;0.90;;;34.20;1.00;;;;;;5014492;28;20463;-67
2023/10/28 09:55:09;;;;;;;4.50;1.10;;;33.40;1.00;;;;;;5021621;28;20478;-67
2023/10/28 09:57:37;;;;;;;4.40;1.03;;;32.70;1.00;;;;;;5022801;28;20460;-68
2023/10/28 10:00:09;;;;;;;3.70;1.00;;;32.70;1.00;;;;;;5022245;28;20534;-67
2023/10/28 10:02:48;;;;;;;4.63;0.93;;;31.50;1.00;;;;;;5022764;28;20483;-67
2023/10/28 10:05:18;;;;;;;4.07;0.87;;;30.10;1.00;;;;;;5027920;28;20470;-67
2023/10/28 10:07:45;;;;;;;3.73;0.80;;;29.80;1.00;;;;;;5033339;28;20455;-67
2023/10/28 10:10:16;;;;;;;3.20;0.77;;;30.70;1.00;;;;;;5023403;28;20954;-67
2023/10/28 10:12:43;;;;;;;5.03;1.20;;;31.40;1.00;;;;;;5024632;28;20472;-67
2023/10/28 10:15:13;;;;;;;4.27;1.00;;;31.80;1.00;;;;;;5024042;28;21009;-67
2023/10/28 10:17:48;;;;;;;3.87;0.90;;;32.10;1.00;;;;;;5022913;28;20470;-68
2023/10/28 10:20:24;;;;;;;3.40;1.00;;;32.20;1.00;;;;;;5020778;28;20451;-67
2023/10/28 10:22:58;;;;;;;5.13;1.23;;;32.40;1.00;;;;;;5022502;28;20596;-67
2023/10/28 10:25:33;;;;;;;4.03;0.97;;;32.40;1.00;;;;;;5022913;28;20470;-66
2023/10/28 10:28:13;;;;;;;3.70;1.20;;;32.40;1.00;;;;;;5024071;28;20462;-67
2023/10/28 10:30:41;;;;;;;4.67;1.10;;;32.10;1.00;;;;;;5021838;28;20478;-67
2023/10/28 10:33:07;;;;;;;3.90;1.10;;;31.80;1.00;;;;;;5024817;28;20467;-67
2023/10/28 10:35:36;;;;;;;4.07;0.90;;;31.30;1.00;;;;;;5021492;28;20517;-66
2023/10/28 10:38:04;;;;;;;6.03;1.00;;;30.80;1.00;;;;;;5022343;28;20462;-67
2023/10/28 10:40:34;;;;;;;4.30;1.00;;;30.50;1.00;;;;;;5020197;28;20463;-67
2023/10/28 10:43:08;;;;;;;4.10;0.90;;;30.30;1.00;;;;;;5022506;28;20475;-67
2023/10/28 10:45:35;;;;;;;3.80;0.93;;;30.00;1.00;;;;;;5023446;28;20522;-67
2023/10/28 10:48:03;;;;;;;4.30;1.17;;;29.60;1.00;;;;;;5019310;28;20474;-68
2023/10/28 10:50:31;;;;;;;4.63;1.00;;;29.20;1.00;;;;;;5025996;28;20455;-67
2023/10/28 10:52:59;;;;;;;6.80;1.47;;;28.80;1.00;;;;;;5022821;28;20543;-68
2023/10/28 10:55:27;;;;;;;6.80;1.30;;;28.10;1.00;;;;;;5025021;28;20749;-67
2023/10/28 10:57:55;;;;;;;4.90;1.20;;;27.70;1.00;;;;;;5023830;28;20521;-66
2023/10/28 11:00:23;;;;;;;4.83;1.43;;;27.40;1.00;;;;;;5023476;28;20514;-67
2023/10/28 11:02:50;;;;;;;5.10;1.60;;;27.00;1.00;;;;;;5020984;28;20865;-67
2023/10/28 11:05:18;;;;;;;4.40;1.20;;;26.80;1.00;;;;;;5025973;28;20486;-67
2023/10/28 11:07:46;;;;;;;5.40;1.07;;;26.60;1.00;;;;;;5021927;28;20467;-67
2023/10/28 11:10:13;;;;;;;4.33;1.50;;;26.40;1.00;;;;;;5020205;28;20490;-66
2023/10/28 11:12:41;;;;;;;7.93;1.10;;;26.10;1.00;;;;;;5027152;28;20467;-67
2023/10/28 11:15:10;;;;;;;5.43;1.30;;;26.00;1.00;;;;;;5021372;28;20529;-67
2023/10/28 11:17:37;;;;;;;4.77;1.10;;;25.80;1.00;;;;;;5019277;28;20485;-67
2023/10/28 11:20:06;;;;;;;6.13;1.67;;;25.60;1.00;;;;;;5019341;28;20837;-67
2023/10/28 11:22:33;;;;;;;5.10;1.40;;;25.60;1.00;;;;;;5022735;28;20459;-66
2023/10/28 11:25:04;;;;;;;5.00;1.50;;;25.50;1.00;;;;;;5026674;28;20844;-66
2023/10/28 11:27:31;;;;;;;6.73;1.50;;;25.40;1.00;;;;;;5020540;28;20456;-66
2023/10/28 11:29:58;;;;;;;4.70;1.43;;;25.40;1.00;;;;;;5019936;28;20462;-66
2023/10/28 11:32:27;;;;;;;5.93;1.20;;;25.30;1.00;;;;;;5016790;28;20487;-67
2023/10/28 11:34:57;;;;;;;5.27;1.40;;;25.30;1.00;;;;;;5024383;28;21278;-67
2023/10/28 11:37:24;;;;;;;3.57;0.87;;;25.40;1.00;;;;;;5014413;28;20482;-67
2023/10/28 11:39:51;;;;;;;3.63;0.87;;;25.50;1.00;;;;;;5026781;28;20461;-67
2023/10/28 11:42:20;;;;;;;4.00;0.90;;;25.50;1.00;;;;;;5026657;28;20539;-67
2023/10/28 11:44:51;;;;;;;5.00;1.27;;;25.60;1.00;;;;;;5021918;28;20479;-66
2023/10/28 11:47:19;;;;;;;5.73;0.97;;;25.70;1.00;;;;;;5025874;28;20466;-68
2023/10/28 11:49:48;;;;;;;5.17;1.00;;;25.80;1.00;;;;;;5019631;28;20470;-66
2023/10/28 11:52:14;;;;;;;3.60;0.97;;;25.80;1.00;;;;;;5026141;28;20493;-67
2023/10/28 11:54:41;;;;;;;5.53;1.13;;;25.90;1.00;;;;;;5024221;28;20833;-67
2023/10/28 11:57:08;;;;;;;3.80;1.20;;;25.90;1.00;;;;;;5023527;28;20485;-66
2023/10/28 11:59:35;;;;;;;3.87;0.83;;;25.90;1.00;;;;;;5026734;28;20467;-66
2023/10/28 12:02:02;;;;;;;3.60;1.00;;;25.60;1.00;;;;;;5023659;28;20475;-66
2023/10/28 12:04:29;;;;;;;4.03;1.07;;;25.50;1.00;;;;;;5020934;28;20484;-66
2023/10/28 12:06:59;;;;;;;3.90;1.00;;;25.20;1.00;;;;;;5023733;28;20451;-66
2023/10/28 12:09:27;;;;;;;6.90;1.20;;;25.00;1.00;;;;;;5023524;28;20577;-66
2023/10/28 12:11:54;;;;;;;6.43;1.93;;;24.80;1.00;;;;;;5018722;28;20509;-67
2023/10/28 12:14:23;;;;;;;4.60;1.30;;;24.60;1.00;;;;;;5023628;28;20582;-66
2023/10/28 12:16:50;;;;;;;6.90;1.50;;;24.50;1.00;;;;;;5016790;28;20565;-66
2023/10/28 12:21:46;;;;;;;4.33;1.00;;;24.30;1.00;;;;;;4960927;28;20957;-69
2023/10/28 12:24:14;;;;;;;6.67;1.20;;;24.40;1.00;;;;;;4965150;28;20501;-69
2023/10/28 12:26:42;;;;;;;5.43;1.20;;;24.50;1.00;;;;;;4966249;28;20469;-69
2023/10/28 12:29:09;;;;;;;4.03;1.03;;;24.60;1.00;;;;;;4972110;28;20525;-69
2023/10/28 12:31:35;;;;;;;5.60;1.13;;;24.30;1.00;;;;;;4969390;28;20492;-69
2023/10/28 12:34:03;;;;;;;5.90;1.30;;;24.10;1.00;;;;;;4973181;28;20880;-69
2023/10/28 12:36:30;;;;;;;4.33;1.00;;;23.80;1.00;;;;;;4971729;28;20505;-69
2023/10/28 12:38:57;;;;;;;4.20;0.87;;;23.50;1.00;;;;;;4971923;28;20454;-69
2023/10/28 12:41:25;;;;;;;5.00;1.37;;;23.20;1.00;;;;;;4971018;28;20466;-69
2023/10/28 12:43:52;;;;;;;6.37;1.10;;;23.00;1.00;;;;;;4969079;28;20470;-70
2023/10/28 12:46:19;;;;;;;6.60;1.67;;;22.70;1.00;;;;;;4971628;28;20454;-69
2023/10/28 12:48:46;;;;;;;8.97;1.70;;;22.60;1.00;;;;;;4971676;28;20488;-69
2023/10/28 12:51:13;;;;;;;4.70;0.97;;;22.40;1.00;;;;;;4970050;28;20465;-69
2023/10/28 12:53:41;;;;;;;5.40;1.07;;;22.30;1.00;;;;;;4971428;28;20461;-69
2023/10/28 12:56:09;;;;;;;4.57;1.00;;;22.20;1.00;;;;;;4982051;28;20482;-69
2023/10/28 12:58:37;;;;;;;4.40;1.13;;;22.00;1.00;;;;;;4978582;28;20470;-69